INFORMACIÓN METAR y TAF
METAR FOR LEST
ADDS - METARS form results

(0024 UTC 07 July 2020)
Data provider http://aviationweather.gov/metar/data/
 
METAR text: LEST 070000Z 06004KT 030V100 9999 FEW014 14/12 Q1019 NOSIG
Conditions at: LEST (SANTIAGO/LABACOL, ES) observed 0000 UTC 07 July 2020
Temperature: 14.0°C (57°F)
Dewpoint: 12.0°C (54°F) [RH = 88%]
Pressure (altimeter): 30.09 inches Hg (1019.0 mb)
Winds: from the ENE (60 degrees) at 5 MPH (4 knots; 2.1 m/s)
Visibility: 6 or more miles (10+ km)
Ceiling: at least 12,000 feet AGL
Clouds: few clouds at 1400 feet AGL
Weather: no significant weather observed at this time

METAR text: LEST 062330Z 06004KT 010V110 9999 FEW014 15/12 Q1019 NOSIG
Conditions at: LEST (SANTIAGO/LABACOL, ES) observed 2330 UTC 06 July 2020
Temperature: 15.0°C (59°F)
Dewpoint: 12.0°C (54°F) [RH = 82%]
Pressure (altimeter): 30.09 inches Hg (1019.0 mb)
Winds: from the ENE (60 degrees) at 5 MPH (4 knots; 2.1 m/s)
Visibility: 6 or more miles (10+ km)
Ceiling: at least 12,000 feet AGL
Clouds: few clouds at 1400 feet AGL
Weather: no significant weather observed at this time

Forecast for: LEST (SANTIAGO/LABACOL, ES)
Text: TAF LEST 062300Z 0700/0724 06008KT CAVOK TX30/0714Z TN13/0705Z
Forecast period: 0000 UTC 07 July 2020 to 0000 UTC 08 July 2020
Forecast type: FROM: standard forecast or significant change
Winds: from the ENE (60 degrees) at 9 MPH (8 knots; 4.1 m/s)
Visibility: 6 or more miles 10+ km)
Ceiling: unknown
Clouds: missing
Weather: no significant weather forecast for this period
Text: TEMPO 0712/0721 FEW040TCU
Forecast period: 1200 to 2100 UTC 07 July 2020
Forecast type: TEMPORARY: The following changes expected for less than half the time period
Visibility: missing
Ceiling: at least 12,000 feet AGL
Clouds: few clouds at 4000 feet AGL
Weather: no significant weather forecast for this period

 MAPA DE AEROPUERTO

 INFORMACIÓN DE PISTA
Pista 17 Longitud 10499 ft Ancho 148 ft
Elevación 1170 ft Umbral desplazado 394 ft Rumbo de pista 166
Pista 35 Longitud 10499 ft Ancho 148 ft
Elevación 1196 ft Umbral desplazado 0 ft Rumbo de pista 346

 FRECUANCIAS DEL AEROPUERTO
Tipo APP Nombre APP Frecuencia 118.2 MHZ
Tipo GND Nombre GND Frecuencia 121.7 MHZ
Tipo TWR Nombre TWR Frecuencia 118.75 MHZ

 RADIO AYUDAS DEL AEROPUERTO
Tipo NDB Nombre Santiago Frecuencia 417 KHZ
Tipo VOR-DME Nombre Santiago Frecuencia 116400 KHZ



Powered by Virtual Airlines Manager [v2.6.2]